createdAt,value
2023-08-12T00:02:19.603Z,43.91
2023-08-12T00:04:49.253Z,43.78
2023-08-12T00:07:17.550Z,43.75
2023-08-12T00:09:45.565Z,43.66
2023-08-12T00:12:13.842Z,43.68
2023-08-12T00:14:41.827Z,43.89
2023-08-12T00:17:10.154Z,44.42
2023-08-12T00:19:38.680Z,44.60
2023-08-12T00:22:08.343Z,44.66
2023-08-12T00:24:36.591Z,44.72
2023-08-12T00:27:05.005Z,44.46
2023-08-12T00:29:33.052Z,44.04
2023-08-12T00:32:01.181Z,44.20
2023-08-12T00:34:29.659Z,44.27
2023-08-12T00:36:57.724Z,44.69
2023-08-12T00:39:27.450Z,44.47
2023-08-12T00:41:55.924Z,44.78
2023-08-12T00:44:24.207Z,44.10
2023-08-12T00:46:52.861Z,43.95
2023-08-12T00:49:21.264Z,44.73
2023-08-12T00:51:51.571Z,44.96
2023-08-12T00:54:23.588Z,45.27
2023-08-12T00:56:54.864Z,45.21
2023-08-12T00:59:24.236Z,44.35
2023-08-12T01:01:52.589Z,44.15
2023-08-12T01:04:22.496Z,44.30
2023-08-12T01:06:52.536Z,44.10
2023-08-12T01:09:21.388Z,44.48
2023-08-12T01:11:55.510Z,44.52
2023-08-12T01:14:27.913Z,45.05
2023-08-12T01:17:00.853Z,44.68
2023-08-12T01:19:34.822Z,44.79
2023-08-12T01:22:05.971Z,44.74
2023-08-12T01:24:38.461Z,44.39
2023-08-12T01:27:07.663Z,44.86
2023-08-12T01:29:37.188Z,44.61
2023-08-12T01:32:13.912Z,44.59
2023-08-12T01:34:49.678Z,44.58
2023-08-12T01:37:25.465Z,44.21
2023-08-12T01:39:57.176Z,44.35
2023-08-12T01:42:26.184Z,44.83
2023-08-12T01:44:56.607Z,44.80
2023-08-12T01:47:26.760Z,44.69
2023-08-12T01:49:55.219Z,44.55
2023-08-12T01:52:25.563Z,44.84
2023-08-12T01:54:54.972Z,44.70
2023-08-12T01:57:23.523Z,44.69
2023-08-12T01:59:51.983Z,44.46
2023-08-12T02:02:19.994Z,44.93
2023-08-12T02:04:48.918Z,45.08
2023-08-12T02:07:16.933Z,45.37
2023-08-12T02:09:44.908Z,45.36
2023-08-12T02:12:15.389Z,45.07
2023-08-12T02:14:43.406Z,45.44
2023-08-12T02:17:11.725Z,45.70
2023-08-12T02:19:40.260Z,46.05
2023-08-12T02:22:08.267Z,46.19
2023-08-12T02:24:36.273Z,46.14
2023-08-12T02:27:04.862Z,46.20
2023-08-12T02:29:34.276Z,45.86
2023-08-12T02:32:02.468Z,45.91
2023-08-12T02:34:30.758Z,46.29
2023-08-12T02:36:58.747Z,45.52
2023-08-12T02:39:26.755Z,45.42
2023-08-12T02:41:55.116Z,45.95
2023-08-12T02:44:26.001Z,46.28
2023-08-12T02:46:55.597Z,46.16
2023-08-12T02:49:23.739Z,46.57
2023-08-12T02:51:51.939Z,47.34
2023-08-12T02:54:20.287Z,47.21
2023-08-12T02:56:48.553Z,47.44
2023-08-12T02:59:16.634Z,47.36
2023-08-12T03:01:45.065Z,47.51
2023-08-12T03:04:14.564Z,47.55
2023-08-12T03:06:42.684Z,48.41
2023-08-12T03:09:10.943Z,47.12
2023-08-12T03:11:39.010Z,46.25
2023-08-12T03:14:08.378Z,46.25
2023-08-12T03:16:36.799Z,46.22
2023-08-12T03:19:05.247Z,46.51
2023-08-12T03:21:35.587Z,46.61
2023-08-12T03:24:03.985Z,46.37
2023-08-12T03:26:32.121Z,46.32
2023-08-12T03:29:00.450Z,47.54
2023-08-12T03:31:29.092Z,48.13
2023-08-12T03:33:57.192Z,47.48
2023-08-12T03:36:25.393Z,46.69
2023-08-12T03:38:55.008Z,46.16
2023-08-12T03:41:24.074Z,46.40
2023-08-12T03:43:52.735Z,46.78
2023-08-12T03:46:21.178Z,46.78
2023-08-12T03:48:49.591Z,47.31
2023-08-12T03:51:17.677Z,47.86
2023-08-12T03:53:46.014Z,47.55
2023-08-12T03:56:17.420Z,47.44
2023-08-12T03:58:46.146Z,47.41
2023-08-12T04:01:14.280Z,47.36
2023-08-12T04:03:42.601Z,47.23
2023-08-12T04:06:10.876Z,47.01
2023-08-12T04:08:39.039Z,47.12
2023-08-12T04:11:07.477Z,46.47
2023-08-12T04:13:36.959Z,46.10
2023-08-12T04:16:05.430Z,46.74
2023-08-12T04:18:33.685Z,46.94
2023-08-12T04:21:02.499Z,46.95
2023-08-12T04:23:30.530Z,47.12
2023-08-12T04:25:59.173Z,47.19
2023-08-12T04:28:27.661Z,47.30
2023-08-12T04:30:58.740Z,47.62
2023-08-12T04:33:27.989Z,47.34
2023-08-12T04:35:56.213Z,47.42
2023-08-12T04:38:24.976Z,47.05
2023-08-12T04:40:55.168Z,47.10
2023-08-12T04:43:23.556Z,47.12
2023-08-12T04:45:51.584Z,47.05
2023-08-12T04:48:21.390Z,47.15
2023-08-12T04:50:49.608Z,47.51
2023-08-12T04:53:18.880Z,47.25
2023-08-12T04:55:47.638Z,47.36
2023-08-12T04:58:16.328Z,47.33
2023-08-12T05:00:44.465Z,47.29
2023-08-12T05:03:13.536Z,47.49
2023-08-12T05:05:42.889Z,47.32
2023-08-12T05:08:11.184Z,47.41
2023-08-12T05:10:39.973Z,47.20
2023-08-12T05:13:08.032Z,47.41
2023-08-12T05:15:37.896Z,47.31
2023-08-12T05:18:07.404Z,47.53
2023-08-12T05:20:35.559Z,47.46
2023-08-12T05:23:05.270Z,47.16
2023-08-12T05:25:33.529Z,47.29
2023-08-12T05:28:01.583Z,48.01
2023-08-12T05:30:29.746Z,47.51
2023-08-12T05:32:58.556Z,47.68
2023-08-12T05:35:27.026Z,47.98
2023-08-12T05:37:55.147Z,49.53
2023-08-12T05:40:24.772Z,49.77
2023-08-12T05:42:53.276Z,48.64
2023-08-12T05:45:21.261Z,50.00
2023-08-12T05:47:49.637Z,48.64
2023-08-12T05:50:17.796Z,49.48
2023-08-12T05:52:46.198Z,48.53
2023-08-12T05:55:14.592Z,48.94
2023-08-12T05:57:43.995Z,48.89
2023-08-12T06:00:13.184Z,49.08
2023-08-12T06:02:42.524Z,48.76
2023-08-12T06:05:11.271Z,48.36
2023-08-12T06:07:41.576Z,48.01
2023-08-12T06:10:10.738Z,48.75
2023-08-12T06:12:38.728Z,49.05
2023-08-12T06:15:09.111Z,47.87
2023-08-12T06:17:37.395Z,48.23
2023-08-12T06:20:06.245Z,47.81
2023-08-12T06:22:34.226Z,47.57
2023-08-12T06:25:02.721Z,47.25
2023-08-12T06:27:30.777Z,46.76
2023-08-12T06:29:58.904Z,46.94
2023-08-12T06:32:28.528Z,46.78
2023-08-12T06:34:56.703Z,47.09
2023-08-12T06:37:24.772Z,47.67
2023-08-12T06:39:53.038Z,47.22
2023-08-12T06:42:21.890Z,46.96
2023-08-12T06:44:56.862Z,46.96
2023-08-12T06:47:26.931Z,46.49
2023-08-12T06:49:56.708Z,46.24
2023-08-12T06:52:24.998Z,46.35
2023-08-12T06:54:53.402Z,46.02
2023-08-12T06:57:21.415Z,45.96
2023-08-12T06:59:49.789Z,45.98
2023-08-12T07:02:17.889Z,45.92
2023-08-12T07:04:45.969Z,45.87
2023-08-12T07:07:16.578Z,45.89
2023-08-12T07:09:44.669Z,45.89
2023-08-12T07:12:13.847Z,46.27
2023-08-12T07:14:44.552Z,46.04
2023-08-12T07:17:12.524Z,45.88
2023-08-12T07:19:40.739Z,45.81
2023-08-12T07:22:09.421Z,45.75
2023-08-12T07:24:39.145Z,45.39
2023-08-12T07:27:08.098Z,45.62
2023-08-12T07:29:36.478Z,45.17
2023-08-12T07:32:05.069Z,44.97
2023-08-12T07:34:33.115Z,44.94
2023-08-12T07:37:03.539Z,45.37
2023-08-12T07:39:31.785Z,45.21
2023-08-12T07:42:01.092Z,44.98
2023-08-12T07:44:29.450Z,44.78
2023-08-12T07:46:57.506Z,44.61
2023-08-12T07:49:25.555Z,44.45
2023-08-12T07:51:53.746Z,44.39
2023-08-12T07:54:21.719Z,44.65
2023-08-12T07:56:49.719Z,44.60
2023-08-12T07:59:19.301Z,44.78
2023-08-12T08:01:47.451Z,44.96
2023-08-12T08:04:15.775Z,45.26
2023-08-12T08:06:43.753Z,45.54
2023-08-12T08:09:11.761Z,46.42
2023-08-12T08:11:40.118Z,46.04
2023-08-12T08:14:08.277Z,46.56
2023-08-12T08:16:38.977Z,46.96
2023-08-12T08:19:10.235Z,47.18
2023-08-12T08:21:40.735Z,46.86
2023-08-12T08:24:12.396Z,47.44
2023-08-12T08:26:41.600Z,47.52
2023-08-12T08:29:09.993Z,47.49
2023-08-12T08:31:39.458Z,47.45
2023-08-12T08:34:08.551Z,47.60
2023-08-12T08:36:36.941Z,47.37
2023-08-12T08:39:05.651Z,47.48
2023-08-12T08:41:34.353Z,47.62
2023-08-12T08:44:05.244Z,47.61
2023-08-12T08:46:33.528Z,47.57
2023-08-12T08:49:02.989Z,47.31
2023-08-12T08:51:32.873Z,47.58
2023-08-12T08:54:03.761Z,47.67
2023-08-12T08:56:34.164Z,47.60
2023-08-12T08:59:06.189Z,47.72
2023-08-12T09:01:34.522Z,47.85
2023-08-12T09:04:05.815Z,47.53
2023-08-12T09:06:34.372Z,47.88
2023-08-12T09:09:04.084Z,47.37
2023-08-12T09:11:32.582Z,47.23
2023-08-12T09:14:00.892Z,47.22
2023-08-12T09:16:29.759Z,46.94
2023-08-12T09:18:58.296Z,47.05
2023-08-12T09:21:27.733Z,46.89
2023-08-12T09:23:57.142Z,46.73
2023-08-12T09:26:25.350Z,46.65
2023-08-12T09:28:55.258Z,46.54
2023-08-12T09:31:26.465Z,46.46
2023-08-12T09:33:55.077Z,46.56
2023-08-12T09:36:24.304Z,46.28
2023-08-12T09:38:53.719Z,46.17
2023-08-12T09:41:24.196Z,45.98
2023-08-12T09:43:54.396Z,45.90
2023-08-12T09:46:24.187Z,45.80
2023-08-12T09:48:53.611Z,45.61
2023-08-12T09:51:22.508Z,45.57
2023-08-12T09:53:51.313Z,45.58
2023-08-12T09:56:24.795Z,45.55
2023-08-12T09:58:54.676Z,45.31
2023-08-12T10:01:23.880Z,45.48
2023-08-12T10:03:53.074Z,45.57
2023-08-12T10:06:22.256Z,45.52
2023-08-12T10:08:51.268Z,45.50
2023-08-12T10:11:21.428Z,45.41
2023-08-12T10:13:50.036Z,45.50
2023-08-12T10:16:22.096Z,45.59
2023-08-12T10:18:52.121Z,45.70
2023-08-12T10:21:20.541Z,45.52
2023-08-12T10:23:49.406Z,45.46
2023-08-12T10:26:19.576Z,45.39
2023-08-12T10:28:52.956Z,45.56
2023-08-12T10:31:24.245Z,45.52
2023-08-12T10:33:52.352Z,45.56
2023-08-12T10:36:21.114Z,45.34
2023-08-12T10:38:49.409Z,45.26
2023-08-12T10:41:19.222Z,45.17
2023-08-12T10:44:02.257Z,45.23
2023-08-12T10:46:32.773Z,43.94
2023-08-12T10:49:04.564Z,44.40
2023-08-12T10:51:43.765Z,43.93
2023-08-12T10:54:27.803Z,43.22
2023-08-12T10:57:14.711Z,43.31
2023-08-12T10:59:56.900Z,42.78
2023-08-12T11:02:30.043Z,42.84
2023-08-12T11:05:06.309Z,42.77
2023-08-12T11:07:36.497Z,43.48
2023-08-12T11:10:13.132Z,43.72
2023-08-12T11:12:43.491Z,42.21
2023-08-12T11:15:13.497Z,41.91
2023-08-12T11:17:43.069Z,41.37
2023-08-12T11:20:13.346Z,41.84
2023-08-12T11:22:43.199Z,42.04
2023-08-12T11:25:12.874Z,40.87
2023-08-12T11:27:45.476Z,41.55
2023-08-12T11:30:16.769Z,40.87
2023-08-12T11:32:46.114Z,41.99
2023-08-12T11:35:16.639Z,41.22
2023-08-12T11:37:46.557Z,40.26
2023-08-12T11:40:18.977Z,40.31
2023-08-12T11:42:48.514Z,39.34
2023-08-12T11:45:20.473Z,38.42
2023-08-12T11:47:53.740Z,37.93
2023-08-12T11:50:24.458Z,38.87
2023-08-12T11:52:54.132Z,40.13
2023-08-12T11:55:23.454Z,38.16
2023-08-12T11:57:52.868Z,37.67
2023-08-12T12:00:24.793Z,38.16
2023-08-12T12:02:54.952Z,38.04
2023-08-12T12:05:25.193Z,37.51
2023-08-12T12:07:54.731Z,39.12
2023-08-12T12:10:30.087Z,39.43
2023-08-12T12:13:02.717Z,37.68
2023-08-12T12:15:32.851Z,39.16
2023-08-12T12:18:01.106Z,38.41
2023-08-12T12:20:30.575Z,38.06
2023-08-12T12:22:58.878Z,38.14
2023-08-12T12:25:27.334Z,38.05
2023-08-12T12:27:56.291Z,38.68
2023-08-12T12:30:24.376Z,37.96
2023-08-12T12:32:53.780Z,38.02
2023-08-12T12:35:22.088Z,37.91
2023-08-12T12:37:50.143Z,37.08
2023-08-12T12:40:18.445Z,36.84
2023-08-12T12:42:47.086Z,36.29
2023-08-12T12:45:15.438Z,36.45
2023-08-12T12:47:43.520Z,36.69
2023-08-12T12:50:13.353Z,35.59
2023-08-12T12:52:43.857Z,36.18
2023-08-12T12:55:13.275Z,34.34
2023-08-12T12:57:41.335Z,34.91
2023-08-12T13:00:12.852Z,33.61
2023-08-12T13:02:43.936Z,33.17
2023-08-12T13:05:13.387Z,33.97
2023-08-12T13:07:41.793Z,34.63
2023-08-12T13:10:10.955Z,35.46
2023-08-12T13:12:38.887Z,34.79
2023-08-12T13:15:08.125Z,34.14
2023-08-12T13:17:36.268Z,34.37
2023-08-12T13:20:05.041Z,37.03
2023-08-12T13:22:35.343Z,37.08
2023-08-12T13:25:03.383Z,36.34
2023-08-12T13:27:32.058Z,34.94
2023-08-12T13:30:00.264Z,36.06
2023-08-12T13:32:28.315Z,36.01
2023-08-12T13:34:56.363Z,35.44
2023-08-12T13:37:24.705Z,32.77
2023-08-12T13:39:54.413Z,35.14
2023-08-12T13:42:22.519Z,34.25
2023-08-12T13:44:50.784Z,35.31
2023-08-12T13:47:18.797Z,35.20
2023-08-12T13:49:46.844Z,35.30
2023-08-12T13:52:15.264Z,34.31
2023-08-12T13:54:43.330Z,35.18
2023-08-12T13:57:12.983Z,35.37
2023-08-12T13:59:44.826Z,34.56
2023-08-12T14:02:12.973Z,35.30
2023-08-12T14:04:41.540Z,35.42
2023-08-12T14:07:09.971Z,34.85
2023-08-12T14:09:40.749Z,34.88
2023-08-12T14:12:09.364Z,33.92
2023-08-12T14:14:38.984Z,35.72
2023-08-12T14:17:07.017Z,34.75
2023-08-12T14:19:35.306Z,35.52
2023-08-12T14:22:03.298Z,35.44
2023-08-12T14:24:31.364Z,35.50
2023-08-12T14:26:59.674Z,34.75
2023-08-12T14:29:28.067Z,35.45
2023-08-12T14:31:57.410Z,35.38
2023-08-12T14:34:25.841Z,35.43
2023-08-12T14:36:53.930Z,35.52
2023-08-12T14:39:22.960Z,35.48
2023-08-12T14:41:51.247Z,35.13
2023-08-12T14:44:19.281Z,35.73
2023-08-12T14:46:47.327Z,35.65
2023-08-12T14:49:16.963Z,35.65
2023-08-12T14:51:44.934Z,35.62
2023-08-12T14:54:12.843Z,35.80
2023-08-12T14:56:41.062Z,35.69
2023-08-12T14:59:09.016Z,35.83
2023-08-12T15:01:37.026Z,35.82
2023-08-12T15:04:06.731Z,35.83
2023-08-12T15:06:36.139Z,35.88
2023-08-12T15:09:04.338Z,35.87
2023-08-12T15:11:32.665Z,36.06
2023-08-12T15:14:00.616Z,36.01
2023-08-12T15:16:28.719Z,36.05
2023-08-12T15:18:56.943Z,36.10
2023-08-12T15:21:25.006Z,36.13
2023-08-12T15:23:54.315Z,36.21
2023-08-12T15:26:23.492Z,36.31
2023-08-12T15:28:51.806Z,36.41
2023-08-12T15:31:19.883Z,36.44
2023-08-12T15:33:48.737Z,36.45
2023-08-12T15:36:16.836Z,36.54
2023-08-12T15:38:44.813Z,36.75
2023-08-12T15:41:16.774Z,36.74
2023-08-12T15:43:45.728Z,36.75
2023-08-12T15:46:14.160Z,36.26
2023-08-12T15:48:43.847Z,36.31
2023-08-12T15:51:11.896Z,36.60
2023-08-12T15:53:40.166Z,36.71
2023-08-12T15:56:08.223Z,37.56
2023-08-12T15:58:37.594Z,37.33
2023-08-12T16:01:05.863Z,37.84
2023-08-12T16:03:34.223Z,38.04
2023-08-12T16:06:03.989Z,38.55
2023-08-12T16:08:32.030Z,39.10
2023-08-12T16:11:00.293Z,38.84
2023-08-12T16:13:28.282Z,39.11
2023-08-12T16:15:57.614Z,39.13
2023-08-12T16:18:25.926Z,39.72
2023-08-12T16:20:55.199Z,39.94
2023-08-12T16:23:23.189Z,40.92
2023-08-12T16:25:51.406Z,40.69
2023-08-12T16:28:19.387Z,41.74
2023-08-12T16:30:47.941Z,41.30
2023-08-12T16:33:17.596Z,40.81
2023-08-12T16:35:46.958Z,41.41
2023-08-12T16:38:15.732Z,40.56
2023-08-12T16:40:44.224Z,40.58
2023-08-12T16:43:12.224Z,42.24
2023-08-12T16:45:40.260Z,41.05
2023-08-12T16:48:08.738Z,40.22
2023-08-12T16:50:38.126Z,39.63
2023-08-12T16:53:07.371Z,39.14
2023-08-12T16:55:36.480Z,39.58
2023-08-12T16:58:06.122Z,39.01
2023-08-12T17:00:34.283Z,38.29
2023-08-12T17:03:02.601Z,39.45
2023-08-12T17:05:30.737Z,39.92
2023-08-12T17:08:00.155Z,39.43
2023-08-12T17:10:29.996Z,40.67
2023-08-12T17:13:01.267Z,40.33
2023-08-12T17:15:30.065Z,40.69
2023-08-12T17:17:58.148Z,41.27
2023-08-12T17:20:27.262Z,41.96
2023-08-12T17:22:55.626Z,41.84
2023-08-12T17:25:25.020Z,42.02
2023-08-12T17:27:53.219Z,41.53
2023-08-12T17:30:21.740Z,41.01
2023-08-12T17:32:50.088Z,40.43
2023-08-12T17:35:18.461Z,40.96
2023-08-12T17:37:46.695Z,41.28
2023-08-12T17:40:17.309Z,41.34
2023-08-12T17:42:46.919Z,41.61
2023-08-12T17:45:15.487Z,42.07
2023-08-12T17:47:57.031Z,42.63
2023-08-12T17:50:25.962Z,43.65
2023-08-12T17:52:54.195Z,42.49
2023-08-12T17:55:23.087Z,42.77
2023-08-12T17:57:53.367Z,43.90
2023-08-12T18:00:23.706Z,43.13
2023-08-12T18:02:52.084Z,43.20
2023-08-12T18:05:20.294Z,42.97
2023-08-12T18:07:48.537Z,43.34
2023-08-12T18:10:17.742Z,43.54
2023-08-12T18:12:46.453Z,44.26
2023-08-12T18:15:16.074Z,44.44
2023-08-12T18:17:45.898Z,44.93
2023-08-12T18:20:16.968Z,44.32
2023-08-12T18:22:45.327Z,45.12
2023-08-12T18:25:13.420Z,44.39
2023-08-12T18:27:41.508Z,44.15
2023-08-12T18:30:10.625Z,44.27
2023-08-12T18:32:40.089Z,44.55
2023-08-12T18:35:08.725Z,45.37
2023-08-12T18:37:37.344Z,44.67
2023-08-12T18:40:06.393Z,45.08
2023-08-12T18:42:34.409Z,45.16
2023-08-12T18:45:02.706Z,44.67
2023-08-12T18:47:33.064Z,44.95
2023-08-12T18:50:03.906Z,46.19
2023-08-12T18:52:31.996Z,46.49
2023-08-12T18:55:00.133Z,45.51
2023-08-12T18:57:29.037Z,46.01
2023-08-12T18:59:57.019Z,46.31
2023-08-12T19:02:25.794Z,46.17
2023-08-12T19:04:54.144Z,46.06
2023-08-12T19:07:24.157Z,46.95
2023-08-12T19:09:52.558Z,48.11
2023-08-12T19:12:21.086Z,46.94
2023-08-12T19:14:49.061Z,47.29
2023-08-12T19:17:18.043Z,46.88
2023-08-12T19:19:47.577Z,47.42
2023-08-12T19:22:18.092Z,47.91
2023-08-12T19:24:47.457Z,47.61
2023-08-12T19:27:16.157Z,48.95
2023-08-12T19:29:44.109Z,47.27
2023-08-12T19:32:12.327Z,47.98
2023-08-12T19:34:41.248Z,47.83
2023-08-12T19:37:09.556Z,48.10
2023-08-12T19:39:37.624Z,48.50
2023-08-12T19:42:07.532Z,49.16
2023-08-12T19:44:35.575Z,48.62
2023-08-12T19:47:03.629Z,47.70
2023-08-12T19:49:33.920Z,47.67
2023-08-12T19:52:04.324Z,47.71
2023-08-12T19:54:32.679Z,47.18
2023-08-12T19:57:00.660Z,47.30
2023-08-12T19:59:30.656Z,47.02
2023-08-12T20:01:59.077Z,48.25
2023-08-12T20:04:27.372Z,47.23
2023-08-12T20:06:56.484Z,47.34
2023-08-12T20:09:26.356Z,47.60
2023-08-12T20:11:54.903Z,48.20
2023-08-12T20:14:23.051Z,47.84
2023-08-12T20:16:52.748Z,47.76
2023-08-12T20:19:21.463Z,47.89
2023-08-12T20:21:51.493Z,48.19
2023-08-12T20:24:19.562Z,47.65
2023-08-12T20:26:48.061Z,48.91
2023-08-12T20:29:16.372Z,47.87
2023-08-12T20:31:44.772Z,47.83
2023-08-12T20:34:14.513Z,48.32
2023-08-12T20:36:44.307Z,48.82
2023-08-12T20:39:13.115Z,48.50
2023-08-12T20:41:41.092Z,48.45
2023-08-12T20:44:09.047Z,48.57
2023-08-12T20:46:37.638Z,47.95
2023-08-12T20:49:05.742Z,48.18
2023-08-12T20:51:35.457Z,47.78
2023-08-12T20:54:04.952Z,47.98
2023-08-12T20:56:32.925Z,48.20
2023-08-12T20:59:00.950Z,47.67
2023-08-12T21:01:29.319Z,48.22
2023-08-12T21:03:57.328Z,48.27
2023-08-12T21:06:25.382Z,48.20
2023-08-12T21:08:55.054Z,48.25
2023-08-12T21:11:23.035Z,48.47
2023-08-12T21:13:51.067Z,48.57
2023-08-12T21:16:19.596Z,48.41
2023-08-12T21:18:47.666Z,48.37
2023-08-12T21:21:15.686Z,48.34
2023-08-12T21:23:44.010Z,48.43
2023-08-12T21:26:13.279Z,48.25
2023-08-12T21:28:41.391Z,48.29
2023-08-12T21:31:11.115Z,48.76
2023-08-12T21:33:39.370Z,48.82
2023-08-12T21:36:08.344Z,49.07
2023-08-12T21:38:36.630Z,49.71
2023-08-12T21:41:04.651Z,49.48
2023-08-12T21:43:33.958Z,49.29
2023-08-12T21:46:02.263Z,48.97
2023-08-12T21:48:30.302Z,48.88
2023-08-12T21:50:58.238Z,48.77
2023-08-12T21:53:26.535Z,48.93
2023-08-12T21:55:54.538Z,48.90
2023-08-12T21:58:22.529Z,49.03
2023-08-12T22:00:52.063Z,49.11
2023-08-12T22:03:20.324Z,49.43
2023-08-12T22:05:48.311Z,49.33
2023-08-12T22:08:16.375Z,49.30
2023-08-12T22:10:45.506Z,49.39
2023-08-12T22:13:13.680Z,49.14
2023-08-12T22:15:41.724Z,49.57
2023-08-12T22:18:11.564Z,49.49
2023-08-12T22:20:39.732Z,49.76
2023-08-12T22:23:07.791Z,49.52
2023-08-12T22:25:36.111Z,52.55
2023-08-12T22:28:05.081Z,49.93
2023-08-12T22:30:33.393Z,49.60
2023-08-12T22:33:01.755Z,49.63
2023-08-12T22:35:31.135Z,49.44
2023-08-12T22:37:59.191Z,49.74
2023-08-12T22:40:27.455Z,49.91
2023-08-12T22:42:55.450Z,50.27
2023-08-12T22:45:23.440Z,50.49
2023-08-12T22:47:51.666Z,50.33
2023-08-12T22:50:20.185Z,50.02
2023-08-12T22:52:50.651Z,49.88
2023-08-12T22:55:19.253Z,50.39
2023-08-12T22:57:47.411Z,50.20
2023-08-12T23:00:15.945Z,51.45
2023-08-12T23:02:44.509Z,51.28
2023-08-12T23:05:12.804Z,51.28
2023-08-12T23:07:40.815Z,52.73
2023-08-12T23:10:11.690Z,52.75
2023-08-12T23:12:39.749Z,54.11
2023-08-12T23:15:09.123Z,51.66
2023-08-12T23:17:37.491Z,51.36
2023-08-12T23:20:07.370Z,51.32
2023-08-12T23:22:35.875Z,52.18
2023-08-12T23:25:05.220Z,51.31
2023-08-12T23:27:34.572Z,51.74
2023-08-12T23:30:02.668Z,51.85
2023-08-12T23:32:31.205Z,52.32
2023-08-12T23:34:59.200Z,50.89
2023-08-12T23:37:27.525Z,51.21
2023-08-12T23:39:55.805Z,52.22
2023-08-12T23:42:23.875Z,51.37
2023-08-12T23:44:53.190Z,50.81
2023-08-12T23:47:21.561Z,52.86
2023-08-12T23:49:50.056Z,52.24
2023-08-12T23:52:18.139Z,51.44
2023-08-12T23:54:46.460Z,52.75
2023-08-12T23:57:14.806Z,52.14
2023-08-12T23:59:45.513Z,51.19
